WetterOnline ( https://www.wetteronline.ch )

Wetter aktuell Kap Arkona

Aktuelles Wetter: Kap Arkona/Rügen (42m)

6-stündlich | Neueste Meldungen
Ortszeit Temperatur Wetter
Di, 12.11. 13:00 6.0° C wolkenlos
Di, 12.11. 7:00 3.4° C bewölkt
Di, 12.11. 1:00 4.7° C wolkig
Mo, 11.11. 19:00 5.0° C wolkig
Mo, 11.11. 13:00 4.8° C bedeckt
Mo, 11.11. 7:00 2.6° C leicht bewölkt
Mo, 11.11. 1:00 3.4° C wolkenlos
So, 10.11. 19:00 4.6° C leicht bewölkt
Ortszeit Temperatur Wetter
Di, 12.11. 17:00 5.8° C wolkenlos
Di, 12.11. 16:50 5.8° C wolkenlos
Di, 12.11. 16:40 5.7° C wolkenlos
Di, 12.11. 16:30 5.9° C fast wolkenlos
Di, 12.11. 16:20 5.9° C fast wolkenlos
Di, 12.11. 16:10 5.9° C fast wolkenlos
Di, 12.11. 16:00 6.0° C wolkenlos
Di, 12.11. 15:30 6.0° C wolkenlos
Di, 12.11. 15:00 6.0° C fast wolkenlos
Di, 12.11. 14:30 6.1° C fast wolkenlos
Di, 12.11. 14:00 6.1° C wolkenlos
Ortszeit Relative Feuchte Sichtweite
Di, 12.11. 13:00 80% 20 km
Di, 12.11. 7:00 87% 11 km
Di, 12.11. 1:00 80% 16 km
Mo, 11.11. 19:00 86% 19 km
Mo, 11.11. 13:00 93% 7 km
Mo, 11.11. 7:00 96% 6 km
Mo, 11.11. 1:00 97% 5.0 km
So, 10.11. 19:00 93% 12 km
Ortszeit Relative Feuchte Sichtweite
Di, 12.11. 17:00 81% 20 km
Di, 12.11. 16:50 81% -
Di, 12.11. 16:40 81% -
Di, 12.11. 16:30 81% 20 km
Di, 12.11. 16:20 81% -
Di, 12.11. 16:10 82% -
Di, 12.11. 16:00 81% 20 km
Di, 12.11. 15:30 81% 21 km
Di, 12.11. 15:00 80% 19 km
Di, 12.11. 14:30 78% 25 km
Di, 12.11. 14:00 78% 20 km
Ortszeit Niederschlagsmenge Niederschlagsart
Di, 12.11. 13:00 0.1 l/m2 in 6 Std. Regen
Di, 12.11. 7:00 0.0 l/m2 in 12 Std. -
Di, 12.11. 1:00 0.0 l/m2 in 6 Std. -
Mo, 11.11. 19:00 0.0 l/m2 in 12 Std. -
Mo, 11.11. 13:00 0.0 l/m2 in 6 Std. -
Mo, 11.11. 7:00 0.0 l/m2 in 12 Std. -
Mo, 11.11. 1:00 0.0 l/m2 in 6 Std. -
So, 10.11. 19:00 0.3 l/m2 in 12 Std. Regen
Ortszeit Niederschlagsmenge Niederschlagsart
Di, 12.11. 17:00 0.0 l/m2 in 1 Std. -
Di, 12.11. 16:50 keine Meldung -
Di, 12.11. 16:40 keine Meldung -
Di, 12.11. 16:30 0.0 l/m2 in 1 Std. -
Di, 12.11. 16:20 keine Meldung -
Di, 12.11. 16:10 keine Meldung -
Di, 12.11. 16:00 0.0 l/m2 in 1 Std. -
Di, 12.11. 15:30 0.0 l/m2 in 1 Std. -
Di, 12.11. 15:00 0.0 l/m2 in 1 Std. -
Di, 12.11. 14:30 0.0 l/m2 in 1 Std. -
Di, 12.11. 14:00 0.0 l/m2 in 1 Std. -
Ortszeit Stärke Spitze Richtung
km/h Bft. km/h Grad Sektor
Di, 12.11. 13:00 30 5 44 190° S
Di, 12.11. 7:00 32 5 54 190° S
Di, 12.11. 1:00 39 6 59 180° S
Mo, 11.11. 19:00 37 5 52 180° S
Mo, 11.11. 13:00 33 5 46 180° S
Mo, 11.11. 7:00 32 5 43 200° S
Mo, 11.11. 1:00 24 4 30 220° SW
So, 10.11. 19:00 14 3 25 220° SW
Ortszeit Stärke Spitze Richtung
km/h Bft. km/h Grad Sektor
Di, 12.11. 17:00 32 5 47 190° S
Di, 12.11. 16:50 32 5 - 190° S
Di, 12.11. 16:40 33 5 - 190° S
Di, 12.11. 16:30 31 5 43 180° S
Di, 12.11. 16:20 31 5 - 180° S
Di, 12.11. 16:10 25 4 - 180° S
Di, 12.11. 16:00 31 5 46 180° S
Di, 12.11. 15:30 26 4 39 180° S
Di, 12.11. 15:00 22 4 36 180° S
Di, 12.11. 14:30 28 4 35 190° S
Di, 12.11. 14:00 28 4 41 190° S
Ortszeit Untergrenze Bedeckung Gattung
total tief tief mittel hoch
Di, 12.11. 13:00 450 m 0/8 0/8 - - -
Di, 12.11. 7:00 270 m 7/8 7/8 - - -
Di, 12.11. 1:00 480 m 8/8 3/8 - - -
Mo, 11.11. 19:00 8400 m 7/8 0/8 - - -
Mo, 11.11. 13:00 180 m 8/8 8/8 - - -
Mo, 11.11. 7:00 120 m 2/8 2/8 - - -
Mo, 11.11. 1:00 - 0/8 0/8 - - -
So, 10.11. 19:00 1500 m 4/8 5/8 - - -
Ortszeit Bedeckungsgrad in Achtel und Wolkenuntergrenze
Di, 12.11. 17:00 keine Wolken
Di, 12.11. 16:50 keine Wolken
Di, 12.11. 16:40 keine Wolken
Di, 12.11. 16:30 1(480m)
Di, 12.11. 16:20 1(480m)
Di, 12.11. 16:10 1(480m)
Di, 12.11. 16:00 1(480m)
Di, 12.11. 15:30 keine Wolken
Di, 12.11. 15:00 1(420m)
Di, 12.11. 14:30 1(480m)
Di, 12.11. 14:00 keine Wolken
Ortszeit Luftdruck NN (hPa) Tendenz (hPa in 3 Std.)
Di, 12.11. 13:00 1005 0,0
Di, 12.11. 7:00 1004 - 0,4
Di, 12.11. 1:00 1005 - 1,5
Mo, 11.11. 19:00 1008 - 1,0
Mo, 11.11. 13:00 1011 - 1,0
Mo, 11.11. 7:00 1013 - 0,7
Mo, 11.11. 1:00 1014 - 0,8
So, 10.11. 19:00 1015 + 0,8
Ortszeit Luftdruck NN (hPa) Tendenz (hPa in 3 Std.)
Di, 12.11. 17:00 1005 + 0,4
Di, 12.11. 16:50 1005 keine Meldung
Di, 12.11. 16:40 1005 keine Meldung
Di, 12.11. 16:30 1005 + 0,5
Di, 12.11. 16:20 1005 keine Meldung
Di, 12.11. 16:10 1005 keine Meldung
Di, 12.11. 16:00 1005 + 0,2
Di, 12.11. 15:30 1005 0,0
Di, 12.11. 15:00 1004 - 0,2
Di, 12.11. 14:30 1004 - 0,4
Di, 12.11. 14:00 1004 - 0,1
Ortszeit Schneehöhe (cm)
Di, 12.11. 13:00 0
Di, 12.11. 7:00 0
Di, 12.11. 1:00 0
Mo, 11.11. 19:00 0
Mo, 11.11. 13:00 0
Mo, 11.11. 7:00 0
Mo, 11.11. 1:00 0
So, 10.11. 19:00 0
Ortszeit Schneehöhe (cm)
Di, 12.11. 17:00 0
Di, 12.11. 16:50 0
Di, 12.11. 16:40 0
Di, 12.11. 16:30 0
Di, 12.11. 16:20 0
Di, 12.11. 16:10 0
Di, 12.11. 16:00 0
Di, 12.11. 15:30 0
Di, 12.11. 15:00 0
Di, 12.11. 14:30 0
Di, 12.11. 14:00 0
Link zu dieser Seite / Seite empfehlen

Das Wetter in ...